EDLN METAR and TAF | Updated Today

EDLN METAR

Mönchengladbach Airport

Observation time: 25 min. ago

EDLN 061850Z 34003KT 8000 FEW017 BKN025 03/03 Q1039

Need help? Read our tutorial on how to read METARs or read the parsed version below.

Mönchengladbach Airport (EDLN) METAR

  • Weather conditions on Mon, 06 Feb 2023 18:50:00 +0000 (25 min. ago):
  • Present conditions: Dry
  • Clouds: A few at 518 meters; broken sky at 762 meters
  • Visibility: 8000 meters
  • Wind: 340 degrees at 3 knots
  • Temperature: 3 celsius
  • Dew point: 3 celsius
  • Pressure: 1039 millibars
  • Remarks: None


Useful to know...

EDLN TAF

Mönchengladbach Airport

TAF EDLN 061700Z 0618/0703 VRB03KT 8000 OVC030 TEMPO 0621/0703 4000 BR
Observation time: 2:15 hr. ago
Need help? Read our tutorial on how to read TAFs or read the parsed version below.

Parsed version of TAF for Mönchengladbach Airport (EDLN)

  • From 06 February at 18:00 UTC, to day 07 of the month at 03:00 UTC
  • Clouds: Overcast sky at 914 meters
  • Visibility: 8000 meters
  • Wind: Variable at 3
  • Expected to arise temporarily, from 06 February at 21:00 UTC, to day 07 of the month at 03:00 UTC
  • Visibility: 4000 meters
  • Other: Mist